sensor_id;sensor_type;location;lat;lon;timestamp;temperature;humidity
7028;DHT22;3555;53.248;10.336;2023-05-29T00:02:04;15.90;99.90
7028;DHT22;3555;53.248;10.336;2023-05-29T00:04:31;15.90;99.90
7028;DHT22;3555;53.248;10.336;2023-05-29T00:06:58;15.90;99.90
7028;DHT22;3555;53.248;10.336;2023-05-29T00:09:25;15.90;99.90
7028;DHT22;3555;53.248;10.336;2023-05-29T00:11:53;15.80;99.90
7028;DHT22;3555;53.248;10.336;2023-05-29T00:14:20;15.80;99.90
7028;DHT22;3555;53.248;10.336;2023-05-29T00:16:48;15.80;99.90
7028;DHT22;3555;53.248;10.336;2023-05-29T00:19:16;15.60;99.90
7028;DHT22;3555;53.248;10.336;2023-05-29T00:21:43;15.60;99.90
7028;DHT22;3555;53.248;10.336;2023-05-29T00:24:13;15.60;99.90
7028;DHT22;3555;53.248;10.336;2023-05-29T00:26:40;15.50;99.90
7028;DHT22;3555;53.248;10.336;2023-05-29T00:29:08;15.40;99.90
7028;DHT22;3555;53.248;10.336;2023-05-29T00:31:35;15.40;99.90
7028;DHT22;3555;53.248;10.336;2023-05-29T00:34:02;15.30;99.90
7028;DHT22;3555;53.248;10.336;2023-05-29T00:36:29;15.30;99.90
7028;DHT22;3555;53.248;10.336;2023-05-29T00:38:57;15.20;99.90
7028;DHT22;3555;53.248;10.336;2023-05-29T00:41:24;15.10;99.90
7028;DHT22;3555;53.248;10.336;2023-05-29T00:43:50;15.00;99.90
7028;DHT22;3555;53.248;10.336;2023-05-29T00:46:19;14.90;99.90
7028;DHT22;3555;53.248;10.336;2023-05-29T00:48:46;14.80;99.90
7028;DHT22;3555;53.248;10.336;2023-05-29T00:51:14;14.80;99.90
7028;DHT22;3555;53.248;10.336;2023-05-29T00:53:42;14.70;99.90
7028;DHT22;3555;53.248;10.336;2023-05-29T00:56:10;14.60;99.90
7028;DHT22;3555;53.248;10.336;2023-05-29T00:58:39;14.50;99.90
7028;DHT22;3555;53.248;10.336;2023-05-29T01:01:07;14.50;99.90
7028;DHT22;3555;53.248;10.336;2023-05-29T01:03:35;14.50;99.90
7028;DHT22;3555;53.248;10.336;2023-05-29T01:06:03;14.60;99.90
7028;DHT22;3555;53.248;10.336;2023-05-29T01:08:30;14.50;99.90
7028;DHT22;3555;53.248;10.336;2023-05-29T01:11:02;14.50;99.90
7028;DHT22;3555;53.248;10.336;2023-05-29T01:13:31;14.40;99.90
7028;DHT22;3555;53.248;10.336;2023-05-29T01:16:08;14.40;99.90
7028;DHT22;3555;53.248;10.336;2023-05-29T01:18:45;14.30;99.90
7028;DHT22;3555;53.248;10.336;2023-05-29T01:21:22;14.40;99.90
7028;DHT22;3555;53.248;10.336;2023-05-29T01:24:02;14.30;99.90
7028;DHT22;3555;53.248;10.336;2023-05-29T01:26:43;14.20;99.90
7028;DHT22;3555;53.248;10.336;2023-05-29T01:29:14;14.20;99.90
7028;DHT22;3555;53.248;10.336;2023-05-29T01:31:42;14.20;99.90
7028;DHT22;3555;53.248;10.336;2023-05-29T01:34:10;14.10;99.90
7028;DHT22;3555;53.248;10.336;2023-05-29T01:36:37;14.10;99.90
7028;DHT22;3555;53.248;10.336;2023-05-29T01:39:04;14.00;99.90
7028;DHT22;3555;53.248;10.336;2023-05-29T01:41:32;14.10;99.90
7028;DHT22;3555;53.248;10.336;2023-05-29T01:44:03;14.10;99.90
7028;DHT22;3555;53.248;10.336;2023-05-29T01:46:34;13.90;99.90
7028;DHT22;3555;53.248;10.336;2023-05-29T01:49:01;13.90;99.90
7028;DHT22;3555;53.248;10.336;2023-05-29T01:51:28;13.80;99.90
7028;DHT22;3555;53.248;10.336;2023-05-29T01:53:57;13.80;99.90
7028;DHT22;3555;53.248;10.336;2023-05-29T01:56:26;13.80;99.90
7028;DHT22;3555;53.248;10.336;2023-05-29T01:58:53;13.70;99.90
7028;DHT22;3555;53.248;10.336;2023-05-29T02:01:22;13.60;99.90
7028;DHT22;3555;53.248;10.336;2023-05-29T02:03:49;13.60;99.90
7028;DHT22;3555;53.248;10.336;2023-05-29T02:06:16;13.60;99.90
7028;DHT22;3555;53.248;10.336;2023-05-29T02:08:43;13.50;99.90
7028;DHT22;3555;53.248;10.336;2023-05-29T02:11:10;13.50;99.90
7028;DHT22;3555;53.248;10.336;2023-05-29T02:13:37;13.50;99.90
7028;DHT22;3555;53.248;10.336;2023-05-29T02:16:05;13.60;99.90
7028;DHT22;3555;53.248;10.336;2023-05-29T02:18:33;13.50;1.00
7028;DHT22;3555;53.248;10.336;2023-05-29T02:21:01;13.50;1.00
7028;DHT22;3555;53.248;10.336;2023-05-29T02:23:28;13.50;1.00
7028;DHT22;3555;53.248;10.336;2023-05-29T02:25:55;13.50;1.00
7028;DHT22;3555;53.248;10.336;2023-05-29T02:28:21;13.50;99.90
7028;DHT22;3555;53.248;10.336;2023-05-29T02:30:48;13.60;99.90
7028;DHT22;3555;53.248;10.336;2023-05-29T02:33:15;13.50;1.00
7028;DHT22;3555;53.248;10.336;2023-05-29T02:35:43;13.60;99.90
7028;DHT22;3555;53.248;10.336;2023-05-29T02:38:10;13.50;99.90
7028;DHT22;3555;53.248;10.336;2023-05-29T02:40:37;13.50;99.90
7028;DHT22;3555;53.248;10.336;2023-05-29T02:43:05;13.50;99.90
7028;DHT22;3555;53.248;10.336;2023-05-29T02:45:32;13.50;99.90
7028;DHT22;3555;53.248;10.336;2023-05-29T02:47:59;13.40;1.00
7028;DHT22;3555;53.248;10.336;2023-05-29T02:50:26;13.40;99.90
7028;DHT22;3555;53.248;10.336;2023-05-29T02:52:54;13.30;1.00
7028;DHT22;3555;53.248;10.336;2023-05-29T02:55:21;13.20;1.00
7028;DHT22;3555;53.248;10.336;2023-05-29T02:57:48;13.20;1.00
7028;DHT22;3555;53.248;10.336;2023-05-29T03:00:18;13.70;1.00
7028;DHT22;3555;53.248;10.336;2023-05-29T03:02:46;13.10;1.00
7028;DHT22;3555;53.248;10.336;2023-05-29T03:05:13;13.10;1.00
7028;DHT22;3555;53.248;10.336;2023-05-29T03:07:40;13.10;1.00
7028;DHT22;3555;53.248;10.336;2023-05-29T03:10:09;13.10;1.00
7028;DHT22;3555;53.248;10.336;2023-05-29T03:12:36;13.00;1.00
7028;DHT22;3555;53.248;10.336;2023-05-29T03:15:04;12.90;1.00
7028;DHT22;3555;53.248;10.336;2023-05-29T03:17:30;12.90;1.00
7028;DHT22;3555;53.248;10.336;2023-05-29T03:19:57;12.80;1.00
7028;DHT22;3555;53.248;10.336;2023-05-29T03:22:24;12.80;1.00
7028;DHT22;3555;53.248;10.336;2023-05-29T03:24:51;12.70;1.00
7028;DHT22;3555;53.248;10.336;2023-05-29T03:27:19;12.60;1.00
7028;DHT22;3555;53.248;10.336;2023-05-29T03:29:46;12.70;1.00
7028;DHT22;3555;53.248;10.336;2023-05-29T03:32:13;12.60;1.00
7028;DHT22;3555;53.248;10.336;2023-05-29T03:34:40;12.60;1.00
7028;DHT22;3555;53.248;10.336;2023-05-29T03:37:07;12.50;1.00
7028;DHT22;3555;53.248;10.336;2023-05-29T03:39:34;12.70;1.00
7028;DHT22;3555;53.248;10.336;2023-05-29T03:42:01;12.60;1.00
7028;DHT22;3555;53.248;10.336;2023-05-29T03:44:30;12.60;1.00
7028;DHT22;3555;53.248;10.336;2023-05-29T03:46:56;12.50;1.00
7028;DHT22;3555;53.248;10.336;2023-05-29T03:49:23;12.50;1.00
7028;DHT22;3555;53.248;10.336;2023-05-29T03:51:50;12.40;1.00
7028;DHT22;3555;53.248;10.336;2023-05-29T03:54:17;12.40;1.00
7028;DHT22;3555;53.248;10.336;2023-05-29T03:56:44;12.50;1.00
7028;DHT22;3555;53.248;10.336;2023-05-29T03:59:11;12.50;1.00
7028;DHT22;3555;53.248;10.336;2023-05-29T04:01:39;12.60;1.00
7028;DHT22;3555;53.248;10.336;2023-05-29T04:04:06;12.60;1.00
7028;DHT22;3555;53.248;10.336;2023-05-29T04:06:33;12.70;1.00
7028;DHT22;3555;53.248;10.336;2023-05-29T04:09:04;12.70;1.00
7028;DHT22;3555;53.248;10.336;2023-05-29T04:11:32;12.80;1.00
7028;DHT22;3555;53.248;10.336;2023-05-29T04:13:59;12.80;1.00
7028;DHT22;3555;53.248;10.336;2023-05-29T04:16:27;12.90;1.00
7028;DHT22;3555;53.248;10.336;2023-05-29T04:18:55;13.00;1.00
7028;DHT22;3555;53.248;10.336;2023-05-29T04:21:22;13.10;1.00
7028;DHT22;3555;53.248;10.336;2023-05-29T04:23:49;13.20;99.90
7028;DHT22;3555;53.248;10.336;2023-05-29T04:26:16;13.20;99.90
7028;DHT22;3555;53.248;10.336;2023-05-29T04:28:43;13.30;99.90
7028;DHT22;3555;53.248;10.336;2023-05-29T04:31:10;13.30;99.90
7028;DHT22;3555;53.248;10.336;2023-05-29T04:33:39;13.50;99.90
7028;DHT22;3555;53.248;10.336;2023-05-29T04:36:08;13.60;99.90
7028;DHT22;3555;53.248;10.336;2023-05-29T04:38:36;13.70;99.90
7028;DHT22;3555;53.248;10.336;2023-05-29T04:41:03;13.80;99.90
7028;DHT22;3555;53.248;10.336;2023-05-29T04:43:30;14.00;99.90
7028;DHT22;3555;53.248;10.336;2023-05-29T04:45:57;14.10;99.90
7028;DHT22;3555;53.248;10.336;2023-05-29T04:48:25;14.20;99.90
7028;DHT22;3555;53.248;10.336;2023-05-29T04:50:53;14.30;99.90
7028;DHT22;3555;53.248;10.336;2023-05-29T04:53:21;14.30;99.90
7028;DHT22;3555;53.248;10.336;2023-05-29T04:55:49;14.40;99.90
7028;DHT22;3555;53.248;10.336;2023-05-29T04:58:16;14.60;99.90
7028;DHT22;3555;53.248;10.336;2023-05-29T05:00:43;14.60;99.90
7028;DHT22;3555;53.248;10.336;2023-05-29T05:03:10;14.80;99.90
7028;DHT22;3555;53.248;10.336;2023-05-29T05:05:37;14.90;99.90
7028;DHT22;3555;53.248;10.336;2023-05-29T05:08:04;15.10;99.00
7028;DHT22;3555;53.248;10.336;2023-05-29T05:10:32;15.20;84.10
7028;DHT22;3555;53.248;10.336;2023-05-29T05:12:59;15.40;48.50
7028;DHT22;3555;53.248;10.336;2023-05-29T05:15:28;15.50;35.80
7028;DHT22;3555;53.248;10.336;2023-05-29T05:17:54;15.60;11.10
7028;DHT22;3555;53.248;10.336;2023-05-29T05:20:21;15.60;15.50
7028;DHT22;3555;53.248;10.336;2023-05-29T05:22:48;15.70;1.00
7028;DHT22;3555;53.248;10.336;2023-05-29T05:25:15;15.80;7.20
7028;DHT22;3555;53.248;10.336;2023-05-29T05:27:43;15.90;1.00
7028;DHT22;3555;53.248;10.336;2023-05-29T05:30:11;16.10;1.00
7028;DHT22;3555;53.248;10.336;2023-05-29T05:32:38;16.20;1.00
7028;DHT22;3555;53.248;10.336;2023-05-29T05:35:05;16.30;1.00
7028;DHT22;3555;53.248;10.336;2023-05-29T05:37:34;16.30;1.00
7028;DHT22;3555;53.248;10.336;2023-05-29T05:40:00;16.50;1.00
7028;DHT22;3555;53.248;10.336;2023-05-29T05:42:31;16.70;1.00
7028;DHT22;3555;53.248;10.336;2023-05-29T05:45:00;17.00;1.00
7028;DHT22;3555;53.248;10.336;2023-05-29T05:47:27;17.10;1.00
7028;DHT22;3555;53.248;10.336;2023-05-29T05:49:54;17.40;1.00
7028;DHT22;3555;53.248;10.336;2023-05-29T05:52:21;17.60;1.00
7028;DHT22;3555;53.248;10.336;2023-05-29T05:54:48;17.90;1.00
7028;DHT22;3555;53.248;10.336;2023-05-29T05:57:15;18.00;1.00
7028;DHT22;3555;53.248;10.336;2023-05-29T05:59:42;18.20;1.00
7028;DHT22;3555;53.248;10.336;2023-05-29T06:02:10;18.40;1.00
7028;DHT22;3555;53.248;10.336;2023-05-29T06:04:37;18.60;1.00
7028;DHT22;3555;53.248;10.336;2023-05-29T06:07:04;18.60;1.00
7028;DHT22;3555;53.248;10.336;2023-05-29T06:09:31;18.80;1.00
7028;DHT22;3555;53.248;10.336;2023-05-29T06:11:58;18.90;1.00
7028;DHT22;3555;53.248;10.336;2023-05-29T06:14:25;19.10;1.00
7028;DHT22;3555;53.248;10.336;2023-05-29T06:16:52;19.20;1.00
7028;DHT22;3555;53.248;10.336;2023-05-29T06:19:21;19.30;1.00
7028;DHT22;3555;53.248;10.336;2023-05-29T06:21:48;19.50;1.00
7028;DHT22;3555;53.248;10.336;2023-05-29T06:24:15;19.50;1.00
7028;DHT22;3555;53.248;10.336;2023-05-29T06:26:42;19.70;1.00
7028;DHT22;3555;53.248;10.336;2023-05-29T06:29:09;19.90;1.00
7028;DHT22;3555;53.248;10.336;2023-05-29T06:31:36;20.00;1.00
7028;DHT22;3555;53.248;10.336;2023-05-29T06:34:02;20.00;1.00
7028;DHT22;3555;53.248;10.336;2023-05-29T06:36:31;20.20;1.00
7028;DHT22;3555;53.248;10.336;2023-05-29T06:39:00;20.40;1.00
7028;DHT22;3555;53.248;10.336;2023-05-29T06:41:27;20.50;1.00
7028;DHT22;3555;53.248;10.336;2023-05-29T06:43:54;20.60;1.00
7028;DHT22;3555;53.248;10.336;2023-05-29T06:46:21;20.70;1.00
7028;DHT22;3555;53.248;10.336;2023-05-29T06:48:47;20.90;1.00
7028;DHT22;3555;53.248;10.336;2023-05-29T06:51:15;21.10;1.00
7028;DHT22;3555;53.248;10.336;2023-05-29T06:53:43;21.30;1.00
7028;DHT22;3555;53.248;10.336;2023-05-29T06:56:10;21.30;1.00
7028;DHT22;3555;53.248;10.336;2023-05-29T06:58:37;21.30;1.00
7028;DHT22;3555;53.248;10.336;2023-05-29T07:01:05;21.50;1.00
7028;DHT22;3555;53.248;10.336;2023-05-29T07:03:32;21.60;1.00
7028;DHT22;3555;53.248;10.336;2023-05-29T07:05:59;21.70;1.00
7028;DHT22;3555;53.248;10.336;2023-05-29T07:08:27;21.70;1.00
7028;DHT22;3555;53.248;10.336;2023-05-29T07:10:55;21.80;1.00
7028;DHT22;3555;53.248;10.336;2023-05-29T07:13:24;21.90;1.00
7028;DHT22;3555;53.248;10.336;2023-05-29T07:15:51;22.00;1.00
7028;DHT22;3555;53.248;10.336;2023-05-29T07:18:18;22.10;1.00
7028;DHT22;3555;53.248;10.336;2023-05-29T07:20:45;22.20;1.00
7028;DHT22;3555;53.248;10.336;2023-05-29T07:23:12;22.30;1.00
7028;DHT22;3555;53.248;10.336;2023-05-29T07:25:39;22.50;1.00
7028;DHT22;3555;53.248;10.336;2023-05-29T07:28:07;22.60;1.00
7028;DHT22;3555;53.248;10.336;2023-05-29T07:30:34;22.50;1.00
7028;DHT22;3555;53.248;10.336;2023-05-29T07:33:01;22.70;1.00
7028;DHT22;3555;53.248;10.336;2023-05-29T07:35:27;22.70;1.00
7028;DHT22;3555;53.248;10.336;2023-05-29T07:37:54;22.80;1.00
7028;DHT22;3555;53.248;10.336;2023-05-29T07:40:21;22.80;1.00
7028;DHT22;3555;53.248;10.336;2023-05-29T07:42:48;22.80;1.00
7028;DHT22;3555;53.248;10.336;2023-05-29T07:45:16;22.80;1.00
7028;DHT22;3555;53.248;10.336;2023-05-29T07:47:43;22.90;1.00
7028;DHT22;3555;53.248;10.336;2023-05-29T07:50:10;23.00;1.00
7028;DHT22;3555;53.248;10.336;2023-05-29T07:52:38;23.10;1.00
7028;DHT22;3555;53.248;10.336;2023-05-29T07:55:05;23.20;1.00
7028;DHT22;3555;53.248;10.336;2023-05-29T07:57:32;23.20;1.00
7028;DHT22;3555;53.248;10.336;2023-05-29T07:59:59;23.30;1.00
7028;DHT22;3555;53.248;10.336;2023-05-29T08:02:29;23.40;1.00
7028;DHT22;3555;53.248;10.336;2023-05-29T08:04:56;23.30;1.00
7028;DHT22;3555;53.248;10.336;2023-05-29T08:07:23;23.50;1.00
7028;DHT22;3555;53.248;10.336;2023-05-29T08:09:52;23.50;1.00
7028;DHT22;3555;53.248;10.336;2023-05-29T08:12:19;23.60;1.00
7028;DHT22;3555;53.248;10.336;2023-05-29T08:14:46;23.50;1.00
7028;DHT22;3555;53.248;10.336;2023-05-29T08:17:13;23.40;1.00
7028;DHT22;3555;53.248;10.336;2023-05-29T08:19:41;23.40;1.00
7028;DHT22;3555;53.248;10.336;2023-05-29T08:22:12;23.30;1.00
7028;DHT22;3555;53.248;10.336;2023-05-29T08:24:39;23.40;1.00
7028;DHT22;3555;53.248;10.336;2023-05-29T08:27:06;23.40;1.00
7028;DHT22;3555;53.248;10.336;2023-05-29T08:29:33;23.40;1.00
7028;DHT22;3555;53.248;10.336;2023-05-29T08:32:01;23.30;1.00
7028;DHT22;3555;53.248;10.336;2023-05-29T08:34:28;23.30;1.00
7028;DHT22;3555;53.248;10.336;2023-05-29T08:36:56;23.50;1.00
7028;DHT22;3555;53.248;10.336;2023-05-29T08:39:23;23.60;1.00
7028;DHT22;3555;53.248;10.336;2023-05-29T08:41:56;23.70;1.00
7028;DHT22;3555;53.248;10.336;2023-05-29T08:44:30;23.90;1.00
7028;DHT22;3555;53.248;10.336;2023-05-29T08:47:01;23.90;99.90
7028;DHT22;3555;53.248;10.336;2023-05-29T08:49:29;24.10;99.90
7028;DHT22;3555;53.248;10.336;2023-05-29T08:52:05;24.10;99.90
7028;DHT22;3555;53.248;10.336;2023-05-29T08:54:36;24.00;99.90
7028;DHT22;3555;53.248;10.336;2023-05-29T08:57:04;24.10;99.90
7028;DHT22;3555;53.248;10.336;2023-05-29T08:59:31;24.10;99.90
7028;DHT22;3555;53.248;10.336;2023-05-29T09:01:59;24.10;99.90
7028;DHT22;3555;53.248;10.336;2023-05-29T09:04:28;24.10;99.90
7028;DHT22;3555;53.248;10.336;2023-05-29T09:06:56;24.10;99.90
7028;DHT22;3555;53.248;10.336;2023-05-29T09:09:25;24.20;99.90
7028;DHT22;3555;53.248;10.336;2023-05-29T09:11:53;24.10;99.90
7028;DHT22;3555;53.248;10.336;2023-05-29T09:14:33;24.10;99.90
7028;DHT22;3555;53.248;10.336;2023-05-29T09:17:01;24.10;99.90
7028;DHT22;3555;53.248;10.336;2023-05-29T09:19:28;24.20;99.90
7028;DHT22;3555;53.248;10.336;2023-05-29T09:22:01;24.30;99.90
7028;DHT22;3555;53.248;10.336;2023-05-29T09:24:32;24.40;99.90
7028;DHT22;3555;53.248;10.336;2023-05-29T09:26:59;24.50;99.90
7028;DHT22;3555;53.248;10.336;2023-05-29T09:29:27;24.40;99.90
7028;DHT22;3555;53.248;10.336;2023-05-29T09:31:53;24.50;99.90
7028;DHT22;3555;53.248;10.336;2023-05-29T09:34:23;24.60;99.90
7028;DHT22;3555;53.248;10.336;2023-05-29T09:36:52;24.70;99.90
7028;DHT22;3555;53.248;10.336;2023-05-29T09:39:19;24.80;99.90
7028;DHT22;3555;53.248;10.336;2023-05-29T09:41:47;24.80;99.90
7028;DHT22;3555;53.248;10.336;2023-05-29T09:44:15;25.00;99.90
7028;DHT22;3555;53.248;10.336;2023-05-29T09:46:42;25.30;99.90
7028;DHT22;3555;53.248;10.336;2023-05-29T09:49:13;25.40;99.90
7028;DHT22;3555;53.248;10.336;2023-05-29T09:51:42;25.50;99.90
7028;DHT22;3555;53.248;10.336;2023-05-29T09:54:14;25.60;99.90
7028;DHT22;3555;53.248;10.336;2023-05-29T09:56:42;25.90;99.90
7028;DHT22;3555;53.248;10.336;2023-05-29T09:59:14;26.00;99.90
7028;DHT22;3555;53.248;10.336;2023-05-29T10:01:42;26.10;99.90
7028;DHT22;3555;53.248;10.336;2023-05-29T10:04:10;26.20;99.90
7028;DHT22;3555;53.248;10.336;2023-05-29T10:06:39;26.40;99.90
7028;DHT22;3555;53.248;10.336;2023-05-29T10:09:10;26.50;99.90
7028;DHT22;3555;53.248;10.336;2023-05-29T10:11:38;26.70;99.90
7028;DHT22;3555;53.248;10.336;2023-05-29T10:14:10;26.80;99.90
7028;DHT22;3555;53.248;10.336;2023-05-29T10:16:43;26.80;99.90
7028;DHT22;3555;53.248;10.336;2023-05-29T10:19:16;27.00;99.90
7028;DHT22;3555;53.248;10.336;2023-05-29T10:21:45;27.10;99.90
7028;DHT22;3555;53.248;10.336;2023-05-29T10:24:14;27.10;99.90
7028;DHT22;3555;53.248;10.336;2023-05-29T10:26:43;27.20;99.90
7028;DHT22;3555;53.248;10.336;2023-05-29T10:29:19;26.60;99.90
7028;DHT22;3555;53.248;10.336;2023-05-29T10:32:01;26.80;99.90
7028;DHT22;3555;53.248;10.336;2023-05-29T10:34:38;27.00;99.90
7028;DHT22;3555;53.248;10.336;2023-05-29T10:37:13;27.30;99.90
7028;DHT22;3555;53.248;10.336;2023-05-29T10:39:45;27.40;99.90
7028;DHT22;3555;53.248;10.336;2023-05-29T10:42:42;27.50;99.90
7028;DHT22;3555;53.248;10.336;2023-05-29T10:45:09;27.30;99.90
7028;DHT22;3555;53.248;10.336;2023-05-29T10:47:38;27.20;99.90
7028;DHT22;3555;53.248;10.336;2023-05-29T10:50:06;27.40;99.90
7028;DHT22;3555;53.248;10.336;2023-05-29T10:52:33;27.40;99.90
7028;DHT22;3555;53.248;10.336;2023-05-29T10:55:01;27.10;99.90
7028;DHT22;3555;53.248;10.336;2023-05-29T10:57:30;27.30;99.90
7028;DHT22;3555;53.248;10.336;2023-05-29T11:00:05;27.40;99.90
7028;DHT22;3555;53.248;10.336;2023-05-29T11:02:39;27.70;99.90
7028;DHT22;3555;53.248;10.336;2023-05-29T11:05:21;27.60;99.90
7028;DHT22;3555;53.248;10.336;2023-05-29T11:07:53;27.70;99.90
7028;DHT22;3555;53.248;10.336;2023-05-29T11:10:43;27.80;99.90
7028;DHT22;3555;53.248;10.336;2023-05-29T11:13:10;27.60;99.90
7028;DHT22;3555;53.248;10.336;2023-05-29T11:15:37;27.80;99.90
7028;DHT22;3555;53.248;10.336;2023-05-29T11:18:11;27.80;99.90
7028;DHT22;3555;53.248;10.336;2023-05-29T11:20:43;28.20;99.90
7028;DHT22;3555;53.248;10.336;2023-05-29T11:23:15;28.50;99.90
7028;DHT22;3555;53.248;10.336;2023-05-29T11:25:44;28.70;99.90
7028;DHT22;3555;53.248;10.336;2023-05-29T11:28:12;28.70;99.90
7028;DHT22;3555;53.248;10.336;2023-05-29T11:30:43;28.10;99.90
7028;DHT22;3555;53.248;10.336;2023-05-29T11:33:19;27.80;99.90
7028;DHT22;3555;53.248;10.336;2023-05-29T11:35:50;28.20;99.90
7028;DHT22;3555;53.248;10.336;2023-05-29T11:38:19;28.00;99.90
7028;DHT22;3555;53.248;10.336;2023-05-29T11:40:46;28.20;99.90
7028;DHT22;3555;53.248;10.336;2023-05-29T11:43:13;28.40;99.90
7028;DHT22;3555;53.248;10.336;2023-05-29T11:45:40;28.70;99.90
7028;DHT22;3555;53.248;10.336;2023-05-29T11:48:07;28.90;99.90
7028;DHT22;3555;53.248;10.336;2023-05-29T11:50:36;28.70;99.90
7028;DHT22;3555;53.248;10.336;2023-05-29T11:53:06;28.60;99.90
7028;DHT22;3555;53.248;10.336;2023-05-29T11:55:33;28.60;99.90
7028;DHT22;3555;53.248;10.336;2023-05-29T11:58:00;28.40;99.90
7028;DHT22;3555;53.248;10.336;2023-05-29T12:00:31;28.30;99.90
7028;DHT22;3555;53.248;10.336;2023-05-29T12:02:59;28.70;99.90
7028;DHT22;3555;53.248;10.336;2023-05-29T12:05:29;28.80;99.90
7028;DHT22;3555;53.248;10.336;2023-05-29T12:07:58;28.80;99.90
7028;DHT22;3555;53.248;10.336;2023-05-29T12:10:28;28.70;99.90
7028;DHT22;3555;53.248;10.336;2023-05-29T12:12:57;28.70;99.90
7028;DHT22;3555;53.248;10.336;2023-05-29T12:15:24;28.70;99.90
7028;DHT22;3555;53.248;10.336;2023-05-29T12:17:52;28.80;99.90
7028;DHT22;3555;53.248;10.336;2023-05-29T12:20:22;28.60;99.90
7028;DHT22;3555;53.248;10.336;2023-05-29T12:22:49;28.80;99.90
7028;DHT22;3555;53.248;10.336;2023-05-29T12:25:19;29.00;99.90
7028;DHT22;3555;53.248;10.336;2023-05-29T12:27:47;29.20;99.90
7028;DHT22;3555;53.248;10.336;2023-05-29T12:30:20;29.20;99.90
7028;DHT22;3555;53.248;10.336;2023-05-29T12:32:48;29.00;99.90
7028;DHT22;3555;53.248;10.336;2023-05-29T12:35:17;28.20;99.90
7028;DHT22;3555;53.248;10.336;2023-05-29T12:37:45;28.00;99.90
7028;DHT22;3555;53.248;10.336;2023-05-29T12:40:17;27.90;99.90
7028;DHT22;3555;53.248;10.336;2023-05-29T12:42:46;27.30;99.90
7028;DHT22;3555;53.248;10.336;2023-05-29T12:45:13;27.30;99.90
7028;DHT22;3555;53.248;10.336;2023-05-29T12:47:55;27.10;99.90
7028;DHT22;3555;53.248;10.336;2023-05-29T12:50:24;27.30;99.90
7028;DHT22;3555;53.248;10.336;2023-05-29T12:52:59;27.10;99.90
7028;DHT22;3555;53.248;10.336;2023-05-29T12:55:28;26.80;99.90
7028;DHT22;3555;53.248;10.336;2023-05-29T12:57:56;27.10;99.90
7028;DHT22;3555;53.248;10.336;2023-05-29T13:00:23;27.30;99.90
7028;DHT22;3555;53.248;10.336;2023-05-29T13:02:50;27.30;99.90
7028;DHT22;3555;53.248;10.336;2023-05-29T13:05:18;27.00;99.90
7028;DHT22;3555;53.248;10.336;2023-05-29T13:07:48;26.80;99.90
7028;DHT22;3555;53.248;10.336;2023-05-29T13:10:15;26.50;99.90
7028;DHT22;3555;53.248;10.336;2023-05-29T13:12:43;26.80;99.90
7028;DHT22;3555;53.248;10.336;2023-05-29T13:15:12;26.80;99.90
7028;DHT22;3555;53.248;10.336;2023-05-29T13:17:39;27.20;99.90
7028;DHT22;3555;53.248;10.336;2023-05-29T13:20:08;27.60;99.90
7028;DHT22;3555;53.248;10.336;2023-05-29T13:22:36;27.70;99.90
7028;DHT22;3555;53.248;10.336;2023-05-29T13:25:03;28.10;99.90
7028;DHT22;3555;53.248;10.336;2023-05-29T13:27:32;28.40;99.90
7028;DHT22;3555;53.248;10.336;2023-05-29T13:30:00;28.90;99.90
7028;DHT22;3555;53.248;10.336;2023-05-29T13:32:27;28.90;99.90
7028;DHT22;3555;53.248;10.336;2023-05-29T13:34:54;29.10;99.90
7028;DHT22;3555;53.248;10.336;2023-05-29T13:37:21;28.90;99.90
7028;DHT22;3555;53.248;10.336;2023-05-29T13:39:48;29.10;99.90
7028;DHT22;3555;53.248;10.336;2023-05-29T13:42:15;29.40;99.90
7028;DHT22;3555;53.248;10.336;2023-05-29T13:44:42;29.50;99.90
7028;DHT22;3555;53.248;10.336;2023-05-29T13:47:10;29.50;99.90
7028;DHT22;3555;53.248;10.336;2023-05-29T13:49:37;29.50;99.90
7028;DHT22;3555;53.248;10.336;2023-05-29T13:52:05;29.60;99.90
7028;DHT22;3555;53.248;10.336;2023-05-29T13:54:32;29.80;99.90
7028;DHT22;3555;53.248;10.336;2023-05-29T13:57:01;29.80;99.90
7028;DHT22;3555;53.248;10.336;2023-05-29T13:59:28;29.40;99.90
7028;DHT22;3555;53.248;10.336;2023-05-29T14:01:55;29.50;99.90
7028;DHT22;3555;53.248;10.336;2023-05-29T14:04:24;29.70;99.90
7028;DHT22;3555;53.248;10.336;2023-05-29T14:06:51;29.60;99.90
7028;DHT22;3555;53.248;10.336;2023-05-29T14:09:18;29.50;99.90
7028;DHT22;3555;53.248;10.336;2023-05-29T14:11:52;29.50;99.90
7028;DHT22;3555;53.248;10.336;2023-05-29T14:14:19;29.40;99.90
7028;DHT22;3555;53.248;10.336;2023-05-29T14:16:46;29.40;99.90
7028;DHT22;3555;53.248;10.336;2023-05-29T14:19:12;29.20;99.90
7028;DHT22;3555;53.248;10.336;2023-05-29T14:21:41;29.30;99.90
7028;DHT22;3555;53.248;10.336;2023-05-29T14:24:07;29.40;99.90
7028;DHT22;3555;53.248;10.336;2023-05-29T14:26:34;29.20;99.90
7028;DHT22;3555;53.248;10.336;2023-05-29T14:29:02;29.10;99.90
7028;DHT22;3555;53.248;10.336;2023-05-29T14:31:28;28.90;99.90
7028;DHT22;3555;53.248;10.336;2023-05-29T14:33:56;29.10;99.90
7028;DHT22;3555;53.248;10.336;2023-05-29T14:36:23;28.70;99.90
7028;DHT22;3555;53.248;10.336;2023-05-29T14:38:51;28.90;99.90
7028;DHT22;3555;53.248;10.336;2023-05-29T14:41:18;29.20;99.90
7028;DHT22;3555;53.248;10.336;2023-05-29T14:43:44;29.50;99.90
7028;DHT22;3555;53.248;10.336;2023-05-29T14:46:11;29.50;99.90
7028;DHT22;3555;53.248;10.336;2023-05-29T14:48:38;29.40;99.90
7028;DHT22;3555;53.248;10.336;2023-05-29T14:51:05;29.20;99.90
7028;DHT22;3555;53.248;10.336;2023-05-29T14:53:33;29.30;99.90
7028;DHT22;3555;53.248;10.336;2023-05-29T14:56:01;28.80;99.90
7028;DHT22;3555;53.248;10.336;2023-05-29T14:58:28;28.70;99.90
7028;DHT22;3555;53.248;10.336;2023-05-29T15:00:55;28.10;99.90
7028;DHT22;3555;53.248;10.336;2023-05-29T15:03:23;28.20;99.90
7028;DHT22;3555;53.248;10.336;2023-05-29T15:05:52;28.40;99.90
7028;DHT22;3555;53.248;10.336;2023-05-29T15:08:19;28.50;99.90
7028;DHT22;3555;53.248;10.336;2023-05-29T15:10:46;28.50;99.90
7028;DHT22;3555;53.248;10.336;2023-05-29T15:13:14;28.30;99.90
7028;DHT22;3555;53.248;10.336;2023-05-29T15:15:41;28.50;99.90
7028;DHT22;3555;53.248;10.336;2023-05-29T15:18:08;28.30;99.90
7028;DHT22;3555;53.248;10.336;2023-05-29T15:20:35;28.40;99.90
7028;DHT22;3555;53.248;10.336;2023-05-29T15:23:02;28.10;99.90
7028;DHT22;3555;53.248;10.336;2023-05-29T15:25:29;28.30;99.90
7028;DHT22;3555;53.248;10.336;2023-05-29T15:27:56;28.00;99.90
7028;DHT22;3555;53.248;10.336;2023-05-29T15:30:25;28.10;99.90
7028;DHT22;3555;53.248;10.336;2023-05-29T15:32:52;27.90;99.90
7028;DHT22;3555;53.248;10.336;2023-05-29T15:35:19;28.20;99.90
7028;DHT22;3555;53.248;10.336;2023-05-29T15:37:46;28.40;99.90
7028;DHT22;3555;53.248;10.336;2023-05-29T15:40:13;28.50;99.90
7028;DHT22;3555;53.248;10.336;2023-05-29T15:42:40;28.60;99.90
7028;DHT22;3555;53.248;10.336;2023-05-29T15:45:07;28.60;99.90
7028;DHT22;3555;53.248;10.336;2023-05-29T15:47:35;28.30;99.90
7028;DHT22;3555;53.248;10.336;2023-05-29T15:50:02;28.30;99.90
7028;DHT22;3555;53.248;10.336;2023-05-29T15:52:29;28.20;99.90
7028;DHT22;3555;53.248;10.336;2023-05-29T15:54:56;28.00;99.90
7028;DHT22;3555;53.248;10.336;2023-05-29T15:57:23;27.90;99.90
7028;DHT22;3555;53.248;10.336;2023-05-29T15:59:50;27.90;99.90